sensor_id;sensor_type;location;lat;lon;timestamp;pressure;altitude;pressure_sealevel;temperature;humidity
63306;BME280;50735;52.060;1.248;2023-07-13T00:00:31;101046.78;;;16.44;48.25
63306;BME280;50735;52.060;1.248;2023-07-13T00:03:03;101049.72;;;16.41;48.32
63306;BME280;50735;52.060;1.248;2023-07-13T00:05:35;101051.36;;;16.35;48.47
63306;BME280;50735;52.060;1.248;2023-07-13T00:08:07;101048.85;;;16.39;48.10
63306;BME280;50735;52.060;1.248;2023-07-13T00:10:40;101046.29;;;16.18;48.09
63306;BME280;50735;52.060;1.248;2023-07-13T00:13:11;101046.26;;;16.20;48.16
63306;BME280;50735;52.060;1.248;2023-07-13T00:15:43;101049.53;;;16.38;47.98
63306;BME280;50735;52.060;1.248;2023-07-13T00:18:15;101045.49;;;16.31;48.19
63306;BME280;50735;52.060;1.248;2023-07-13T00:20:47;101047.76;;;16.33;48.15
63306;BME280;50735;52.060;1.248;2023-07-13T00:23:19;101049.12;;;16.52;48.03
63306;BME280;50735;52.060;1.248;2023-07-13T00:25:50;101051.61;;;16.29;48.21
63306;BME280;50735;52.060;1.248;2023-07-13T00:28:22;101051.26;;;16.16;48.36
63306;BME280;50735;52.060;1.248;2023-07-13T00:30:54;101055.47;;;16.00;48.23
63306;BME280;50735;52.060;1.248;2023-07-13T00:33:27;101054.10;;;16.43;48.14
63306;BME280;50735;52.060;1.248;2023-07-13T00:35:59;101050.72;;;16.44;47.97
63306;BME280;50735;52.060;1.248;2023-07-13T00:38:30;101048.80;;;16.15;48.04
63306;BME280;50735;52.060;1.248;2023-07-13T00:41:02;101048.40;;;15.98;48.22
63306;BME280;50735;52.060;1.248;2023-07-13T00:43:35;101049.16;;;15.83;48.29
63306;BME280;50735;52.060;1.248;2023-07-13T00:46:16;101052.40;;;15.88;48.53
63306;BME280;50735;52.060;1.248;2023-07-13T00:48:49;101061.53;;;15.47;48.86
63306;BME280;50735;52.060;1.248;2023-07-13T00:51:28;101060.16;;;15.62;48.85
63306;BME280;50735;52.060;1.248;2023-07-13T00:54:05;101059.40;;;15.42;48.74
63306;BME280;50735;52.060;1.248;2023-07-13T00:56:39;101059.52;;;15.77;48.77
63306;BME280;50735;52.060;1.248;2023-07-13T00:59:12;101065.41;;;15.54;48.85
63306;BME280;50735;52.060;1.248;2023-07-13T01:01:45;101064.28;;;15.61;48.48
63306;BME280;50735;52.060;1.248;2023-07-13T01:04:17;101063.73;;;15.87;48.60
63306;BME280;50735;52.060;1.248;2023-07-13T01:06:49;101064.16;;;15.52;48.67
63306;BME280;50735;52.060;1.248;2023-07-13T01:09:22;101064.78;;;15.36;48.91
63306;BME280;50735;52.060;1.248;2023-07-13T01:11:54;101061.49;;;15.58;49.01
63306;BME280;50735;52.060;1.248;2023-07-13T01:14:26;101060.95;;;15.34;48.92
63306;BME280;50735;52.060;1.248;2023-07-13T01:16:58;101064.28;;;15.61;48.56
63306;BME280;50735;52.060;1.248;2023-07-13T01:19:35;101066.47;;;15.61;48.60
63306;BME280;50735;52.060;1.248;2023-07-13T01:22:09;101069.01;;;15.35;48.47
63306;BME280;50735;52.060;1.248;2023-07-13T01:24:43;101069.95;;;15.55;48.58
63306;BME280;50735;52.060;1.248;2023-07-13T01:27:20;101073.48;;;15.16;48.70
63306;BME280;50735;52.060;1.248;2023-07-13T01:29:53;101070.29;;;15.04;49.16
63306;BME280;50735;52.060;1.248;2023-07-13T01:32:25;101069.18;;;15.19;49.16
63306;BME280;50735;52.060;1.248;2023-07-13T01:34:56;101072.53;;;15.01;49.18
63306;BME280;50735;52.060;1.248;2023-07-13T01:37:28;101074.11;;;15.21;49.32
63306;BME280;50735;52.060;1.248;2023-07-13T01:40:01;101076.59;;;14.98;49.02
63306;BME280;50735;52.060;1.248;2023-07-13T01:42:33;101081.30;;;15.13;49.46
63306;BME280;50735;52.060;1.248;2023-07-13T01:45:06;101080.01;;;15.10;49.25
63306;BME280;50735;52.060;1.248;2023-07-13T01:47:38;101078.00;;;14.87;49.26
63306;BME280;50735;52.060;1.248;2023-07-13T01:50:10;101077.59;;;15.13;49.30
63306;BME280;50735;52.060;1.248;2023-07-13T01:52:41;101080.56;;;15.16;49.04
63306;BME280;50735;52.060;1.248;2023-07-13T01:55:13;101083.36;;;15.24;48.77
63306;BME280;50735;52.060;1.248;2023-07-13T01:57:45;101080.77;;;15.14;49.01
63306;BME280;50735;52.060;1.248;2023-07-13T02:00:17;101078.36;;;14.99;49.21
63306;BME280;50735;52.060;1.248;2023-07-13T02:02:49;101073.74;;;14.95;49.40
63306;BME280;50735;52.060;1.248;2023-07-13T02:05:21;101073.79;;;14.96;49.12
63306;BME280;50735;52.060;1.248;2023-07-13T02:07:54;101075.79;;;14.71;49.76
63306;BME280;50735;52.060;1.248;2023-07-13T02:10:26;101071.69;;;14.64;49.68
63306;BME280;50735;52.060;1.248;2023-07-13T02:12:58;101073.52;;;14.60;49.87
63306;BME280;50735;52.060;1.248;2023-07-13T02:15:30;101071.49;;;14.65;49.78
63306;BME280;50735;52.060;1.248;2023-07-13T02:18:02;101070.18;;;14.65;50.30
63306;BME280;50735;52.060;1.248;2023-07-13T02:20:34;101068.37;;;14.34;50.49
63306;BME280;50735;52.060;1.248;2023-07-13T02:23:05;101068.50;;;14.39;50.52
63306;BME280;50735;52.060;1.248;2023-07-13T02:25:37;101068.45;;;14.51;50.49
63306;BME280;50735;52.060;1.248;2023-07-13T02:28:09;101066.38;;;14.63;50.40
63306;BME280;50735;52.060;1.248;2023-07-13T02:30:41;101067.50;;;14.20;50.93
63306;BME280;50735;52.060;1.248;2023-07-13T02:33:13;101066.45;;;14.44;50.78
63306;BME280;50735;52.060;1.248;2023-07-13T02:35:44;101064.73;;;14.28;50.84
63306;BME280;50735;52.060;1.248;2023-07-13T02:38:16;101064.75;;;14.17;50.94
63306;BME280;50735;52.060;1.248;2023-07-13T02:40:48;101067.95;;;14.36;50.84
63306;BME280;50735;52.060;1.248;2023-07-13T02:43:20;101071.61;;;14.12;50.81
63306;BME280;50735;52.060;1.248;2023-07-13T02:45:52;101072.78;;;14.10;51.14
63306;BME280;50735;52.060;1.248;2023-07-13T02:48:24;101074.62;;;14.44;51.14
63306;BME280;50735;52.060;1.248;2023-07-13T02:50:55;101075.47;;;14.25;51.06
63306;BME280;50735;52.060;1.248;2023-07-13T02:53:27;101077.50;;;13.96;51.99
63306;BME280;50735;52.060;1.248;2023-07-13T02:55:59;101076.18;;;14.17;51.74
63306;BME280;50735;52.060;1.248;2023-07-13T02:58:31;101079.81;;;14.06;51.64
63306;BME280;50735;52.060;1.248;2023-07-13T03:01:07;101078.75;;;14.06;51.64
63306;BME280;50735;52.060;1.248;2023-07-13T03:03:39;101080.04;;;14.15;52.01
63306;BME280;50735;52.060;1.248;2023-07-13T03:06:11;101079.71;;;14.14;51.97
63306;BME280;50735;52.060;1.248;2023-07-13T03:08:44;101079.05;;;14.00;51.85
63306;BME280;50735;52.060;1.248;2023-07-13T03:11:18;101079.18;;;13.98;52.40
63306;BME280;50735;52.060;1.248;2023-07-13T03:13:51;101082.97;;;13.79;52.43
63306;BME280;50735;52.060;1.248;2023-07-13T03:16:23;101081.39;;;13.72;52.67
63306;BME280;50735;52.060;1.248;2023-07-13T03:18:55;101078.30;;;13.98;52.17
63306;BME280;50735;52.060;1.248;2023-07-13T03:21:27;101083.15;;;13.87;52.05
63306;BME280;50735;52.060;1.248;2023-07-13T03:23:58;101087.51;;;14.06;52.15
63306;BME280;50735;52.060;1.248;2023-07-13T03:26:30;101087.96;;;14.01;52.37
63306;BME280;50735;52.060;1.248;2023-07-13T03:29:02;101090.31;;;13.92;52.47
63306;BME280;50735;52.060;1.248;2023-07-13T03:31:35;101089.53;;;14.06;52.69
63306;BME280;50735;52.060;1.248;2023-07-13T03:34:07;101095.46;;;13.93;52.50
63306;BME280;50735;52.060;1.248;2023-07-13T03:36:39;101098.11;;;13.90;52.80
63306;BME280;50735;52.060;1.248;2023-07-13T03:39:10;101102.60;;;13.84;52.55
63306;BME280;50735;52.060;1.248;2023-07-13T03:41:42;101105.36;;;13.77;53.10
63306;BME280;50735;52.060;1.248;2023-07-13T03:44:16;101106.46;;;13.84;52.66
63306;BME280;50735;52.060;1.248;2023-07-13T03:46:47;101109.18;;;13.91;52.78
63306;BME280;50735;52.060;1.248;2023-07-13T03:49:19;101108.31;;;14.01;52.12
63306;BME280;50735;52.060;1.248;2023-07-13T03:51:52;101113.84;;;13.89;52.55
63306;BME280;50735;52.060;1.248;2023-07-13T03:54:24;101116.83;;;13.80;52.70
63306;BME280;50735;52.060;1.248;2023-07-13T03:56:56;101118.85;;;13.74;52.86
63306;BME280;50735;52.060;1.248;2023-07-13T03:59:27;101120.03;;;13.69;52.95
63306;BME280;50735;52.060;1.248;2023-07-13T04:02:01;101120.84;;;13.62;53.11
63306;BME280;50735;52.060;1.248;2023-07-13T04:04:33;101122.32;;;13.52;53.45
63306;BME280;50735;52.060;1.248;2023-07-13T04:07:05;101129.07;;;13.53;53.31
63306;BME280;50735;52.060;1.248;2023-07-13T04:09:36;101132.62;;;13.39;53.46
63306;BME280;50735;52.060;1.248;2023-07-13T04:12:08;101134.91;;;13.67;53.73
63306;BME280;50735;52.060;1.248;2023-07-13T04:14:40;101136.70;;;13.52;53.40
63306;BME280;50735;52.060;1.248;2023-07-13T04:17:12;101140.53;;;13.77;53.43
63306;BME280;50735;52.060;1.248;2023-07-13T04:19:44;101146.50;;;13.63;53.12
63306;BME280;50735;52.060;1.248;2023-07-13T04:22:16;101144.78;;;13.67;53.05
63306;BME280;50735;52.060;1.248;2023-07-13T04:24:47;101146.68;;;13.70;53.34
63306;BME280;50735;52.060;1.248;2023-07-13T04:27:19;101148.37;;;13.28;53.41
63306;BME280;50735;52.060;1.248;2023-07-13T04:29:51;101152.94;;;13.41;53.56
63306;BME280;50735;52.060;1.248;2023-07-13T04:32:23;101151.24;;;13.40;54.31
63306;BME280;50735;52.060;1.248;2023-07-13T04:34:55;101156.90;;;13.30;54.09
63306;BME280;50735;52.060;1.248;2023-07-13T04:37:27;101155.72;;;13.60;53.99
63306;BME280;50735;52.060;1.248;2023-07-13T04:39:59;101157.98;;;13.44;53.76
63306;BME280;50735;52.060;1.248;2023-07-13T04:42:31;101153.37;;;13.47;53.72
63306;BME280;50735;52.060;1.248;2023-07-13T04:45:03;101156.70;;;13.51;53.98
63306;BME280;50735;52.060;1.248;2023-07-13T04:47:35;101163.25;;;13.60;53.34
63306;BME280;50735;52.060;1.248;2023-07-13T04:50:08;101170.46;;;13.58;53.76
63306;BME280;50735;52.060;1.248;2023-07-13T04:52:41;101168.02;;;13.51;54.39
63306;BME280;50735;52.060;1.248;2023-07-13T04:55:12;101169.61;;;13.33;54.38
63306;BME280;50735;52.060;1.248;2023-07-13T04:57:45;101170.16;;;13.39;54.35
63306;BME280;50735;52.060;1.248;2023-07-13T05:00:17;101169.02;;;13.79;54.14
63306;BME280;50735;52.060;1.248;2023-07-13T05:02:49;101168.25;;;13.12;54.67
63306;BME280;50735;52.060;1.248;2023-07-13T05:05:20;101167.60;;;13.20;54.82
63306;BME280;50735;52.060;1.248;2023-07-13T05:07:53;101174.31;;;13.34;54.34
63306;BME280;50735;52.060;1.248;2023-07-13T05:10:25;101177.49;;;13.45;54.33
63306;BME280;50735;52.060;1.248;2023-07-13T05:12:58;101180.35;;;13.73;54.18
63306;BME280;50735;52.060;1.248;2023-07-13T05:15:30;101181.88;;;13.48;54.62
63306;BME280;50735;52.060;1.248;2023-07-13T05:18:01;101184.77;;;13.64;54.08
63306;BME280;50735;52.060;1.248;2023-07-13T05:20:33;101184.35;;;13.99;54.00
63306;BME280;50735;52.060;1.248;2023-07-13T05:23:05;101187.97;;;13.76;54.02
63306;BME280;50735;52.060;1.248;2023-07-13T05:25:37;101192.62;;;13.70;53.99
63306;BME280;50735;52.060;1.248;2023-07-13T05:28:09;101195.76;;;14.09;53.64
63306;BME280;50735;52.060;1.248;2023-07-13T05:30:45;101194.48;;;13.97;53.78
63306;BME280;50735;52.060;1.248;2023-07-13T05:33:16;101197.12;;;14.06;53.73
63306;BME280;50735;52.060;1.248;2023-07-13T05:35:48;101196.80;;;13.87;53.92
63306;BME280;50735;52.060;1.248;2023-07-13T05:38:20;101197.93;;;13.94;54.23
63306;BME280;50735;52.060;1.248;2023-07-13T05:40:54;101197.21;;;13.99;54.19
63306;BME280;50735;52.060;1.248;2023-07-13T05:43:26;101198.82;;;14.06;54.52
63306;BME280;50735;52.060;1.248;2023-07-13T05:45:58;101201.58;;;13.90;53.97
63306;BME280;50735;52.060;1.248;2023-07-13T05:48:30;101205.93;;;14.20;53.94
63306;BME280;50735;52.060;1.248;2023-07-13T05:51:02;101210.76;;;14.31;54.02
63306;BME280;50735;52.060;1.248;2023-07-13T05:53:34;101209.60;;;14.31;54.43
63306;BME280;50735;52.060;1.248;2023-07-13T05:56:06;101213.90;;;14.38;53.88
63306;BME280;50735;52.060;1.248;2023-07-13T05:58:38;101209.83;;;14.43;53.74
63306;BME280;50735;52.060;1.248;2023-07-13T06:01:11;101213.83;;;14.44;54.32
63306;BME280;50735;52.060;1.248;2023-07-13T06:03:44;101215.99;;;14.44;53.94
63306;BME280;50735;52.060;1.248;2023-07-13T06:06:16;101221.03;;;15.02;53.70
63306;BME280;50735;52.060;1.248;2023-07-13T06:08:49;101223.76;;;14.89;53.43
63306;BME280;50735;52.060;1.248;2023-07-13T06:11:23;101225.25;;;14.54;53.72
63306;BME280;50735;52.060;1.248;2023-07-13T06:13:56;101230.26;;;14.47;53.50
63306;BME280;50735;52.060;1.248;2023-07-13T06:16:28;101231.77;;;14.88;54.02
63306;BME280;50735;52.060;1.248;2023-07-13T06:19:00;101231.39;;;14.90;53.41
63306;BME280;50735;52.060;1.248;2023-07-13T06:21:32;101236.89;;;15.01;53.04
63306;BME280;50735;52.060;1.248;2023-07-13T06:24:04;101239.68;;;14.74;53.33
63306;BME280;50735;52.060;1.248;2023-07-13T06:26:36;101244.64;;;14.77;53.38
63306;BME280;50735;52.060;1.248;2023-07-13T06:29:08;101247.64;;;14.79;53.34
63306;BME280;50735;52.060;1.248;2023-07-13T06:31:40;101246.85;;;15.12;53.15
63306;BME280;50735;52.060;1.248;2023-07-13T06:34:12;101253.97;;;15.47;53.05
63306;BME280;50735;52.060;1.248;2023-07-13T06:36:44;101250.56;;;15.88;51.53
63306;BME280;50735;52.060;1.248;2023-07-13T06:39:15;101257.33;;;15.53;52.51
63306;BME280;50735;52.060;1.248;2023-07-13T06:41:47;101263.40;;;15.39;52.27
63306;BME280;50735;52.060;1.248;2023-07-13T06:44:19;101264.75;;;15.57;51.92
63306;BME280;50735;52.060;1.248;2023-07-13T06:46:51;101262.56;;;15.61;51.67
63306;BME280;50735;52.060;1.248;2023-07-13T06:49:22;101268.04;;;15.80;51.60
63306;BME280;50735;52.060;1.248;2023-07-13T06:51:54;101266.35;;;15.72;51.30
63306;BME280;50735;52.060;1.248;2023-07-13T06:54:26;101271.55;;;15.62;51.68
63306;BME280;50735;52.060;1.248;2023-07-13T06:56:58;101275.43;;;15.65;52.11
63306;BME280;50735;52.060;1.248;2023-07-13T06:59:30;101281.06;;;15.45;51.91
63306;BME280;50735;52.060;1.248;2023-07-13T07:02:02;101281.75;;;15.45;51.58
63306;BME280;50735;52.060;1.248;2023-07-13T07:04:34;101275.41;;;15.69;51.09
63306;BME280;50735;52.060;1.248;2023-07-13T07:07:06;101280.24;;;15.77;50.95
63306;BME280;50735;52.060;1.248;2023-07-13T07:09:37;101280.15;;;16.06;50.70
63306;BME280;50735;52.060;1.248;2023-07-13T07:12:09;101284.41;;;16.08;50.54
63306;BME280;50735;52.060;1.248;2023-07-13T07:14:41;101289.63;;;16.32;50.36
63306;BME280;50735;52.060;1.248;2023-07-13T07:17:13;101290.46;;;16.00;50.47
63306;BME280;50735;52.060;1.248;2023-07-13T07:19:45;101284.89;;;16.13;50.27
63306;BME280;50735;52.060;1.248;2023-07-13T07:22:16;101282.65;;;16.12;50.80
63306;BME280;50735;52.060;1.248;2023-07-13T07:24:48;101280.72;;;16.40;50.34
63306;BME280;50735;52.060;1.248;2023-07-13T07:27:20;101281.23;;;16.70;49.73
63306;BME280;50735;52.060;1.248;2023-07-13T07:29:52;101284.40;;;16.64;49.52
63306;BME280;50735;52.060;1.248;2023-07-13T07:32:23;101287.97;;;16.45;49.47
63306;BME280;50735;52.060;1.248;2023-07-13T07:34:55;101284.22;;;16.45;49.94
63306;BME280;50735;52.060;1.248;2023-07-13T07:37:27;101289.72;;;16.48;49.82
63306;BME280;50735;52.060;1.248;2023-07-13T07:39:59;101288.59;;;16.62;49.73
63306;BME280;50735;52.060;1.248;2023-07-13T07:42:31;101290.62;;;16.18;49.80
63306;BME280;50735;52.060;1.248;2023-07-13T07:45:03;101291.21;;;16.52;50.09
63306;BME280;50735;52.060;1.248;2023-07-13T07:47:35;101290.16;;;16.81;49.53
63306;BME280;50735;52.060;1.248;2023-07-13T07:50:08;101290.82;;;16.92;48.83
63306;BME280;50735;52.060;1.248;2023-07-13T07:52:39;101292.59;;;17.18;48.61
63306;BME280;50735;52.060;1.248;2023-07-13T07:55:11;101290.45;;;17.32;48.24
63306;BME280;50735;52.060;1.248;2023-07-13T07:57:42;101291.15;;;17.38;47.65
63306;BME280;50735;52.060;1.248;2023-07-13T08:00:16;101287.43;;;17.30;46.82
63306;BME280;50735;52.060;1.248;2023-07-13T08:02:47;101289.91;;;17.82;47.01
63306;BME280;50735;52.060;1.248;2023-07-13T08:05:20;101295.30;;;17.80;46.47
63306;BME280;50735;52.060;1.248;2023-07-13T08:07:51;101295.21;;;17.70;46.08
63306;BME280;50735;52.060;1.248;2023-07-13T08:10:23;101290.27;;;18.08;45.88
63306;BME280;50735;52.060;1.248;2023-07-13T08:12:55;101293.53;;;18.00;45.96
63306;BME280;50735;52.060;1.248;2023-07-13T08:15:27;101292.61;;;18.49;45.46
63306;BME280;50735;52.060;1.248;2023-07-13T08:17:59;101293.68;;;18.27;45.42
63306;BME280;50735;52.060;1.248;2023-07-13T08:20:30;101290.92;;;18.16;45.33
63306;BME280;50735;52.060;1.248;2023-07-13T08:23:02;101292.06;;;18.37;45.07
63306;BME280;50735;52.060;1.248;2023-07-13T08:25:34;101292.82;;;18.36;44.49
63306;BME280;50735;52.060;1.248;2023-07-13T08:28:06;101297.64;;;18.59;44.69
63306;BME280;50735;52.060;1.248;2023-07-13T08:30:38;101295.21;;;18.69;44.35
63306;BME280;50735;52.060;1.248;2023-07-13T08:33:10;101299.98;;;18.41;44.21
63306;BME280;50735;52.060;1.248;2023-07-13T08:35:42;101297.09;;;18.75;44.05
63306;BME280;50735;52.060;1.248;2023-07-13T08:38:14;101299.33;;;18.56;43.51
63306;BME280;50735;52.060;1.248;2023-07-13T08:40:50;101300.36;;;18.69;43.23
63306;BME280;50735;52.060;1.248;2023-07-13T08:43:26;101304.33;;;18.57;43.45
63306;BME280;50735;52.060;1.248;2023-07-13T08:46:05;101301.78;;;18.88;43.43
63306;BME280;50735;52.060;1.248;2023-07-13T08:48:44;101300.52;;;18.75;42.62
63306;BME280;50735;52.060;1.248;2023-07-13T08:51:29;101297.80;;;18.86;42.94
63306;BME280;50735;52.060;1.248;2023-07-13T08:54:09;101299.70;;;19.06;42.79
63306;BME280;50735;52.060;1.248;2023-07-13T08:56:44;101300.14;;;19.54;43.40
63306;BME280;50735;52.060;1.248;2023-07-13T08:59:20;101299.47;;;19.14;42.69
63306;BME280;50735;52.060;1.248;2023-07-13T09:02:05;101296.17;;;19.64;42.91
63306;BME280;50735;52.060;1.248;2023-07-13T09:04:42;101292.69;;;19.48;42.38
63306;BME280;50735;52.060;1.248;2023-07-13T09:07:26;101292.15;;;19.81;41.56
63306;BME280;50735;52.060;1.248;2023-07-13T09:10:09;101287.20;;;20.73;41.64
63306;BME280;50735;52.060;1.248;2023-07-13T09:12:52;101286.01;;;21.31;39.83
63306;BME280;50735;52.060;1.248;2023-07-13T09:15:30;101289.93;;;20.86;38.75
63306;BME280;50735;52.060;1.248;2023-07-13T09:18:06;101288.84;;;20.70;39.11
63306;BME280;50735;52.060;1.248;2023-07-13T09:20:44;101289.38;;;21.14;38.57
63306;BME280;50735;52.060;1.248;2023-07-13T09:23:20;101285.04;;;20.89;38.75
63306;BME280;50735;52.060;1.248;2023-07-13T09:25:54;101285.08;;;20.95;38.45
63306;BME280;50735;52.060;1.248;2023-07-13T09:28:29;101289.08;;;20.62;38.92
63306;BME280;50735;52.060;1.248;2023-07-13T09:31:11;101292.17;;;20.48;39.81
63306;BME280;50735;52.060;1.248;2023-07-13T09:33:45;101301.19;;;20.31;40.82
63306;BME280;50735;52.060;1.248;2023-07-13T09:36:20;101300.26;;;19.95;40.65
63306;BME280;50735;52.060;1.248;2023-07-13T09:39:01;101296.15;;;19.88;41.01
63306;BME280;50735;52.060;1.248;2023-07-13T09:41:40;101303.19;;;19.69;41.68
63306;BME280;50735;52.060;1.248;2023-07-13T09:44:17;101300.59;;;19.54;41.95
63306;BME280;50735;52.060;1.248;2023-07-13T09:46:53;101302.56;;;19.27;42.54
63306;BME280;50735;52.060;1.248;2023-07-13T09:49:27;101293.78;;;19.78;41.74
63306;BME280;50735;52.060;1.248;2023-07-13T09:52:00;101299.33;;;20.25;41.32
63306;BME280;50735;52.060;1.248;2023-07-13T09:54:34;101301.60;;;20.62;39.07
63306;BME280;50735;52.060;1.248;2023-07-13T09:57:14;101302.34;;;20.57;38.47
63306;BME280;50735;52.060;1.248;2023-07-13T09:59:49;101300.29;;;20.27;39.26
63306;BME280;50735;52.060;1.248;2023-07-13T10:02:26;101295.05;;;20.74;39.30
63306;BME280;50735;52.060;1.248;2023-07-13T10:04:59;101297.02;;;21.12;38.90
63306;BME280;50735;52.060;1.248;2023-07-13T10:07:38;101299.60;;;20.96;37.55
63306;BME280;50735;52.060;1.248;2023-07-13T10:10:15;101298.36;;;21.19;37.74
63306;BME280;50735;52.060;1.248;2023-07-13T10:12:47;101298.89;;;21.08;37.56
63306;BME280;50735;52.060;1.248;2023-07-13T10:15:22;101294.88;;;21.05;37.06
63306;BME280;50735;52.060;1.248;2023-07-13T10:17:55;101299.25;;;21.44;36.95
63306;BME280;50735;52.060;1.248;2023-07-13T10:20:27;101298.00;;;21.56;36.19
63306;BME280;50735;52.060;1.248;2023-07-13T10:23:02;101297.82;;;21.47;36.47
63306;BME280;50735;52.060;1.248;2023-07-13T10:25:39;101299.54;;;21.54;37.24
63306;BME280;50735;52.060;1.248;2023-07-13T10:28:28;101297.01;;;21.35;37.22
63306;BME280;50735;52.060;1.248;2023-07-13T10:31:01;101300.30;;;21.16;37.58
63306;BME280;50735;52.060;1.248;2023-07-13T10:33:34;101302.93;;;21.32;37.30
63306;BME280;50735;52.060;1.248;2023-07-13T10:36:14;101308.04;;;20.94;37.04
63306;BME280;50735;52.060;1.248;2023-07-13T10:38:50;101306.09;;;21.31;37.01
63306;BME280;50735;52.060;1.248;2023-07-13T10:41:24;101303.39;;;21.62;36.89
63306;BME280;50735;52.060;1.248;2023-07-13T10:43:58;101306.26;;;22.03;36.88
63306;BME280;50735;52.060;1.248;2023-07-13T10:46:31;101299.30;;;21.99;36.10
63306;BME280;50735;52.060;1.248;2023-07-13T10:49:05;101295.16;;;22.93;34.70
63306;BME280;50735;52.060;1.248;2023-07-13T10:51:39;101299.71;;;23.03;33.10
63306;BME280;50735;52.060;1.248;2023-07-13T10:54:16;101298.68;;;23.48;33.06
63306;BME280;50735;52.060;1.248;2023-07-13T10:56:50;101302.59;;;23.61;32.42
63306;BME280;50735;52.060;1.248;2023-07-13T10:59:26;101292.36;;;24.31;32.34
63306;BME280;50735;52.060;1.248;2023-07-13T11:02:10;101298.13;;;24.01;31.13
63306;BME280;50735;52.060;1.248;2023-07-13T11:04:45;101290.44;;;23.66;31.46
63306;BME280;50735;52.060;1.248;2023-07-13T11:07:21;101299.48;;;23.29;31.37
63306;BME280;50735;52.060;1.248;2023-07-13T11:09:54;101291.52;;;22.94;31.95
63306;BME280;50735;52.060;1.248;2023-07-13T11:12:48;101288.18;;;22.99;32.25
63306;BME280;50735;52.060;1.248;2023-07-13T11:15:44;101288.97;;;23.53;31.57
63306;BME280;50735;52.060;1.248;2023-07-13T11:18:21;101281.97;;;23.70;30.58
63306;BME280;50735;52.060;1.248;2023-07-13T11:21:13;101285.11;;;23.00;30.74
63306;BME280;50735;52.060;1.248;2023-07-13T11:23:52;101284.87;;;23.10;31.35
63306;BME280;50735;52.060;1.248;2023-07-13T11:26:42;101287.03;;;22.89;31.75
63306;BME280;50735;52.060;1.248;2023-07-13T11:29:31;101281.77;;;22.44;32.44
63306;BME280;50735;52.060;1.248;2023-07-13T11:32:22;101282.78;;;22.06;32.51
63306;BME280;50735;52.060;1.248;2023-07-13T11:34:54;101279.64;;;22.22;32.71
63306;BME280;50735;52.060;1.248;2023-07-13T11:37:28;101282.27;;;22.32;31.73
63306;BME280;50735;52.060;1.248;2023-07-13T11:40:01;101280.96;;;22.86;31.66
63306;BME280;50735;52.060;1.248;2023-07-13T11:42:35;101275.41;;;22.94;31.19
63306;BME280;50735;52.060;1.248;2023-07-13T11:45:19;101281.06;;;23.07;31.22
63306;BME280;50735;52.060;1.248;2023-07-13T11:47:52;101282.47;;;23.12;30.77
63306;BME280;50735;52.060;1.248;2023-07-13T11:50:24;101289.73;;;23.34;30.28
63306;BME280;50735;52.060;1.248;2023-07-13T11:52:58;101281.49;;;23.17;31.02
63306;BME280;50735;52.060;1.248;2023-07-13T11:55:31;101276.48;;;23.80;31.31
63306;BME280;50735;52.060;1.248;2023-07-13T11:58:03;101271.29;;;23.94;31.37
63306;BME280;50735;52.060;1.248;2023-07-13T12:00:35;101266.07;;;24.09;30.68
63306;BME280;50735;52.060;1.248;2023-07-13T12:03:07;101268.50;;;24.08;30.16
63306;BME280;50735;52.060;1.248;2023-07-13T12:05:55;101278.52;;;23.57;31.27
63306;BME280;50735;52.060;1.248;2023-07-13T12:08:27;101281.44;;;22.86;32.00
63306;BME280;50735;52.060;1.248;2023-07-13T12:11:06;101283.49;;;22.32;32.02
63306;BME280;50735;52.060;1.248;2023-07-13T12:13:44;101277.34;;;22.09;33.80
63306;BME280;50735;52.060;1.248;2023-07-13T12:16:23;101285.45;;;21.83;33.66
63306;BME280;50735;52.060;1.248;2023-07-13T12:18:57;101285.14;;;21.88;33.98
63306;BME280;50735;52.060;1.248;2023-07-13T12:21:32;101280.59;;;21.93;33.43
63306;BME280;50735;52.060;1.248;2023-07-13T12:24:05;101289.89;;;21.74;34.38
63306;BME280;50735;52.060;1.248;2023-07-13T12:26:50;101284.49;;;21.18;34.89
63306;BME280;50735;52.060;1.248;2023-07-13T12:29:23;101283.77;;;21.64;35.06
63306;BME280;50735;52.060;1.248;2023-07-13T12:31:54;101281.15;;;21.75;35.22
63306;BME280;50735;52.060;1.248;2023-07-13T12:34:27;101290.90;;;21.30;36.03
63306;BME280;50735;52.060;1.248;2023-07-13T12:37:00;101287.64;;;21.50;35.72
63306;BME280;50735;52.060;1.248;2023-07-13T12:39:34;101296.28;;;21.30;35.63
63306;BME280;50735;52.060;1.248;2023-07-13T12:42:19;101282.08;;;21.50;32.69
63306;BME280;50735;52.060;1.248;2023-07-13T12:44:53;101281.10;;;21.86;32.64
63306;BME280;50735;52.060;1.248;2023-07-13T12:47:26;101278.46;;;21.91;31.97
63306;BME280;50735;52.060;1.248;2023-07-13T12:49:59;101277.92;;;21.81;32.49
63306;BME280;50735;52.060;1.248;2023-07-13T12:52:33;101279.22;;;21.47;32.35
63306;BME280;50735;52.060;1.248;2023-07-13T12:55:11;101279.86;;;21.95;32.66
63306;BME280;50735;52.060;1.248;2023-07-13T12:57:49;101290.26;;;22.16;32.60
63306;BME280;50735;52.060;1.248;2023-07-13T13:00:24;101282.16;;;22.44;32.74
63306;BME280;50735;52.060;1.248;2023-07-13T13:03:04;101289.25;;;22.78;32.56
63306;BME280;50735;52.060;1.248;2023-07-13T13:05:37;101275.86;;;23.08;32.74
63306;BME280;50735;52.060;1.248;2023-07-13T13:08:11;101282.51;;;23.39;32.10
63306;BME280;50735;52.060;1.248;2023-07-13T13:10:43;101277.76;;;23.63;32.09
63306;BME280;50735;52.060;1.248;2023-07-13T13:13:15;101285.17;;;22.99;32.28
63306;BME280;50735;52.060;1.248;2023-07-13T13:15:47;101286.12;;;22.84;32.91
63306;BME280;50735;52.060;1.248;2023-07-13T13:18:20;101289.16;;;22.03;33.76
63306;BME280;50735;52.060;1.248;2023-07-13T13:20:53;101286.40;;;21.92;33.90
63306;BME280;50735;52.060;1.248;2023-07-13T13:23:25;101284.53;;;22.05;34.35